KCRX/CRX METAR and TAF weather

Enter ICAO airport designator
Station Type Date Time Source
KCRX METAR 2022/01/26 08:15 UTC NOAA

KCRX 260815Z AUTO 36008KT 10SM CLR M03/M11 A3039 RMK AO2


Station Type Date Time Source
KCRX Decoded METAR 2022/01/26 08:15 UTC NOAA

Station name not available
Jan 26, 2022 - 03:15 AM EST / 2022.01.26 0815 UTC
Wind: from the N (360 degrees) at 9 MPH (8 KT):0
Visibility: 10 mile(s):0
Sky conditions: clear
Temperature: 26 F (-3 C)
Windchill: 17 F (-8 C):1
Dew Point: 12 F (-11 C)
Relative Humidity: 53%
Pressure (altimeter): 30.39 in. Hg (1029 hPa)
ob: KCRX 260815Z AUTO 36008KT 10SM CLR M03/M11 A3039 RMK AO2
cycle: 8

Station Type Date Time Source
KCRX TAF UTC NOAA

Error!

Example: see airport list